createdAt,value
2022-10-08T00:00:54.003Z,101225.50
2022-10-08T00:03:24.901Z,101219.53
2022-10-08T00:06:01.700Z,101217.75
2022-10-08T00:08:32.467Z,101212.59
2022-10-08T00:11:03.963Z,101216.03
2022-10-08T00:13:40.863Z,101214.19
2022-10-08T00:16:12.549Z,101204.63
2022-10-08T00:18:42.795Z,101207.88
2022-10-08T00:21:17.412Z,101209.34
2022-10-08T00:23:48.649Z,101209.19
2022-10-08T00:26:20.286Z,101212.56
2022-10-08T00:28:50.370Z,101214.03
2022-10-08T00:31:22.178Z,101213.09
2022-10-08T00:33:53.146Z,101208.56
2022-10-08T00:36:26.957Z,101212.06
2022-10-08T00:39:00.023Z,101207.63
2022-10-08T00:41:32.449Z,101214.41
2022-10-08T00:44:03.989Z,101215.28
2022-10-08T00:46:37.918Z,101204.81
2022-10-08T00:49:10.441Z,101202.25
2022-10-08T00:51:45.375Z,101208.84
2022-10-08T00:54:15.821Z,101209.66
2022-10-08T00:56:46.315Z,101212.94
2022-10-08T00:59:16.894Z,101210.38
2022-10-08T01:01:46.737Z,101197.41
2022-10-08T01:04:16.745Z,101203.22
2022-10-08T01:06:53.547Z,101204.91
2022-10-08T01:09:27.366Z,101198.72
2022-10-08T01:12:01.075Z,101179.63
2022-10-08T01:14:39.378Z,101186.25
2022-10-08T01:17:14.356Z,101186.97
2022-10-08T01:20:04.898Z,101174.59
2022-10-08T01:22:48.988Z,101176.13
2022-10-08T01:25:36.034Z,101164.81
2022-10-08T01:28:14.074Z,101164.03
2022-10-08T01:30:48.420Z,101166.44
2022-10-08T01:33:22.752Z,101166.38
2022-10-08T01:35:57.288Z,101162.91
2022-10-08T01:38:27.860Z,101162.03
2022-10-08T01:40:59.238Z,101166.31
2022-10-08T01:43:33.861Z,101164.69
2022-10-08T01:46:09.172Z,101161.47
2022-10-08T01:48:41.250Z,101149.34
2022-10-08T01:51:15.601Z,101148.63
2022-10-08T01:53:47.672Z,101149.22
2022-10-08T01:56:19.912Z,101156.00
2022-10-08T01:58:55.934Z,101153.34
2022-10-08T02:01:32.175Z,101148.28
2022-10-08T02:04:14.222Z,101150.69
2022-10-08T02:06:47.574Z,101144.72
2022-10-08T02:09:17.206Z,101145.53
2022-10-08T02:11:46.842Z,101160.34
2022-10-08T02:14:19.052Z,101153.66
2022-10-08T02:16:52.979Z,101161.47
2022-10-08T02:19:26.946Z,101165.94
2022-10-08T02:21:58.141Z,101161.78
2022-10-08T02:24:31.184Z,101156.75
2022-10-08T02:27:01.729Z,101151.78
2022-10-08T02:29:39.233Z,101160.47
2022-10-08T02:32:12.720Z,101154.78
2022-10-08T02:34:44.483Z,101148.81
2022-10-08T02:37:17.886Z,101128.19
2022-10-08T02:39:50.466Z,101147.06
2022-10-08T02:42:22.094Z,101143.66
2022-10-08T02:44:57.701Z,101141.03
2022-10-08T02:47:30.210Z,101144.38
2022-10-08T02:50:03.206Z,101141.91
2022-10-08T02:52:37.101Z,101141.81
2022-10-08T02:55:13.181Z,101143.63
2022-10-08T02:57:46.981Z,101162.38
2022-10-08T03:00:19.090Z,101156.50
2022-10-08T03:02:51.897Z,101160.75
2022-10-08T03:05:22.682Z,101159.00
2022-10-08T03:07:53.541Z,101160.59
2022-10-08T03:10:26.064Z,101174.47
2022-10-08T03:12:55.993Z,101170.19
2022-10-08T03:15:28.074Z,101173.56
2022-10-08T03:17:58.040Z,101171.06
2022-10-08T03:20:27.510Z,101183.88
2022-10-08T03:22:57.178Z,101181.38
2022-10-08T03:25:26.573Z,101178.00
2022-10-08T03:27:56.013Z,101174.47
2022-10-08T03:30:28.017Z,101192.53
2022-10-08T03:32:57.394Z,101195.09
2022-10-08T03:35:26.857Z,101202.84
2022-10-08T03:37:56.356Z,101205.41
2022-10-08T03:40:25.745Z,101200.25
2022-10-08T03:42:55.112Z,101202.03
2022-10-08T03:45:24.512Z,101204.50
2022-10-08T03:47:56.648Z,101210.56
2022-10-08T03:50:26.057Z,101204.50
2022-10-08T03:52:55.453Z,101206.16
2022-10-08T03:55:24.838Z,101212.13
2022-10-08T03:57:54.209Z,101204.38
2022-10-08T04:00:23.623Z,101208.72
2022-10-08T04:02:53.211Z,101204.38
2022-10-08T04:05:25.206Z,101205.19
2022-10-08T04:07:55.230Z,101220.56
2022-10-08T04:10:24.835Z,101215.41
2022-10-08T04:12:54.222Z,101227.31
2022-10-08T04:15:23.593Z,101225.72
2022-10-08T04:17:52.983Z,101235.16
2022-10-08T04:20:24.958Z,101235.06
2022-10-08T04:22:54.341Z,101240.31
2022-10-08T04:25:23.754Z,101237.63
2022-10-08T04:27:53.162Z,101234.19
2022-10-08T04:30:24.055Z,101238.31
2022-10-08T04:32:53.726Z,101241.69
2022-10-08T04:35:25.746Z,101240.56
2022-10-08T04:37:55.114Z,101253.47
2022-10-08T04:40:24.485Z,101253.47
2022-10-08T04:42:54.565Z,101249.13
2022-10-08T04:45:23.958Z,101256.03
2022-10-08T04:47:53.353Z,101249.13
2022-10-08T04:50:25.329Z,101245.72
2022-10-08T04:52:54.696Z,101241.13
2022-10-08T04:55:24.845Z,101234.19
2022-10-08T04:57:54.218Z,101228.91
2022-10-08T05:00:23.690Z,101223.75
2022-10-08T05:02:53.118Z,101219.41
2022-10-08T05:05:25.166Z,101204.72
2022-10-08T05:07:56.728Z,101190.97
2022-10-08T05:10:26.531Z,101182.19
2022-10-08T05:12:55.942Z,101170.03
2022-10-08T05:15:25.307Z,101162.38
2022-10-08T05:17:54.771Z,101153.75
2022-10-08T05:20:26.726Z,101158.91
2022-10-08T05:22:56.092Z,101148.59
2022-10-08T05:25:25.446Z,101155.53
2022-10-08T05:27:54.832Z,101143.44
2022-10-08T05:30:24.222Z,101158.91
2022-10-08T05:32:53.654Z,101155.38
2022-10-08T05:35:25.819Z,101157.94
2022-10-08T05:37:55.209Z,101169.94
2022-10-08T05:40:24.778Z,101166.41
2022-10-08T05:42:55.302Z,101162.94
2022-10-08T05:45:24.821Z,101170.53
2022-10-08T05:47:55.681Z,101166.97
2022-10-08T05:50:27.675Z,101159.09
2022-10-08T05:52:57.049Z,101163.28
2022-10-08T05:55:27.548Z,101159.72
2022-10-08T05:57:56.958Z,101165.06
2022-10-08T06:00:26.357Z,101163.91
2022-10-08T06:02:55.781Z,101167.38
2022-10-08T06:05:27.869Z,101162.97
2022-10-08T06:07:57.616Z,101173.28
2022-10-08T06:10:27.239Z,101192.16
2022-10-08T06:12:56.597Z,101195.47
2022-10-08T06:15:25.990Z,101188.56
2022-10-08T06:17:55.485Z,101179.88
2022-10-08T06:20:31.662Z,101173.66
2022-10-08T06:23:01.399Z,101176.41
2022-10-08T06:25:30.800Z,101182.34
2022-10-08T06:28:00.211Z,101181.63
2022-10-08T06:30:29.604Z,101174.84
2022-10-08T06:32:59.002Z,101181.00
2022-10-08T06:35:32.375Z,101179.38
2022-10-08T06:38:01.754Z,101175.19
2022-10-08T06:40:38.922Z,101178.88
2022-10-08T06:43:08.953Z,101172.91
2022-10-08T06:45:40.929Z,101167.22
2022-10-08T06:48:10.413Z,101179.53
2022-10-08T06:50:42.547Z,101178.72
2022-10-08T06:53:12.967Z,101176.13
2022-10-08T06:55:43.423Z,101181.28
2022-10-08T06:58:12.789Z,101178.72
2022-10-08T07:00:42.235Z,101183.88
2022-10-08T07:03:11.875Z,101172.19
2022-10-08T07:05:44.738Z,101180.38
2022-10-08T07:08:14.131Z,101192.53
2022-10-08T07:10:43.789Z,101192.00
2022-10-08T07:13:13.153Z,101197.38
2022-10-08T07:15:42.549Z,101195.81
2022-10-08T07:18:12.800Z,101204.00
2022-10-08T07:20:44.890Z,101217.06
2022-10-08T07:23:14.274Z,101223.41
2022-10-08T07:25:43.681Z,101227.44
2022-10-08T07:28:13.273Z,101236.00
2022-10-08T07:30:42.733Z,101243.97
2022-10-08T07:33:12.086Z,101247.34
2022-10-08T07:35:44.094Z,101252.69
2022-10-08T07:38:13.473Z,101258.28
2022-10-08T07:40:42.849Z,101268.00
2022-10-08T07:43:13.306Z,101285.75
2022-10-08T07:45:50.194Z,101286.22
2022-10-08T07:48:20.657Z,101292.41
2022-10-08T07:50:52.617Z,101300.75
2022-10-08T07:53:21.999Z,101314.81
2022-10-08T07:55:51.366Z,101331.59
2022-10-08T07:58:20.757Z,101341.16
2022-10-08T08:00:50.876Z,101350.94
2022-10-08T08:03:20.301Z,101356.22
2022-10-08T08:05:54.033Z,101374.16
2022-10-08T08:08:24.873Z,101385.81
2022-10-08T08:10:59.539Z,101405.31
2022-10-08T08:13:34.443Z,101416.16
2022-10-08T08:16:08.961Z,101426.88
2022-10-08T08:18:40.028Z,101440.63
2022-10-08T08:21:14.034Z,101460.94
2022-10-08T08:23:45.509Z,101483.84
2022-10-08T08:26:16.605Z,101495.00
2022-10-08T08:28:46.319Z,101515.09
2022-10-08T08:31:17.518Z,101551.47
2022-10-08T08:33:51.349Z,101563.81
2022-10-08T08:36:26.507Z,101561.22
2022-10-08T08:38:55.965Z,101569.97
2022-10-08T08:42:01.072Z,101557.03
2022-10-08T08:44:36.153Z,101543.34
2022-10-08T08:47:09.452Z,101545.63
2022-10-08T08:49:43.398Z,101543.91
2022-10-08T08:52:18.085Z,101545.38
2022-10-08T08:54:49.376Z,101545.66
2022-10-08T08:57:30.110Z,101517.75
2022-10-08T09:00:03.815Z,101513.94
2022-10-08T09:02:36.933Z,101519.41
2022-10-08T09:05:09.036Z,101502.47
2022-10-08T09:07:46.010Z,101478.91
2022-10-08T09:10:20.217Z,101487.06
2022-10-08T09:12:50.819Z,101489.63
2022-10-08T09:15:22.481Z,101494.50
2022-10-08T09:17:54.542Z,101492.22
2022-10-08T09:20:25.819Z,101493.34
2022-10-08T09:22:58.070Z,101486.00
2022-10-08T09:25:31.140Z,101469.09
2022-10-08T09:28:01.532Z,101443.97
2022-10-08T09:30:35.058Z,101444.69
2022-10-08T09:33:06.988Z,101420.78
2022-10-08T09:35:37.336Z,101421.88
2022-10-08T09:38:09.326Z,101414.88
2022-10-08T09:40:38.696Z,101385.13
2022-10-08T09:43:16.587Z,101359.34
2022-10-08T09:45:47.905Z,101333.56
2022-10-08T09:48:22.963Z,101321.31
2022-10-08T09:50:59.216Z,101306.78
2022-10-08T09:53:35.701Z,101293.97
2022-10-08T09:56:06.906Z,101272.00
2022-10-08T09:58:38.277Z,101245.72
2022-10-08T10:01:09.828Z,101194.25
2022-10-08T10:03:40.003Z,101132.91
2022-10-08T10:06:09.584Z,101105.28
2022-10-08T10:08:51.741Z,101083.13
2022-10-08T10:11:27.054Z,101074.88
2022-10-08T10:13:56.735Z,101092.66
2022-10-08T10:16:28.442Z,101087.19
2022-10-08T10:19:00.368Z,101086.22
2022-10-08T10:21:37.043Z,101076.53
2022-10-08T10:24:33.918Z,101070.94
2022-10-08T10:27:09.029Z,101054.97
2022-10-08T10:29:47.213Z,101057.06
2022-10-08T10:32:21.237Z,101069.47
2022-10-08T10:34:58.413Z,101078.91
2022-10-08T10:37:34.235Z,101086.59
2022-10-08T10:40:19.248Z,101071.50
2022-10-08T10:42:55.989Z,101076.56
2022-10-08T10:45:27.406Z,101065.69
2022-10-08T10:47:57.483Z,101056.03
2022-10-08T10:50:32.287Z,101060.34
2022-10-08T10:53:07.662Z,101091.59
2022-10-08T10:55:43.032Z,101087.22
2022-10-08T10:58:28.345Z,101075.00
2022-10-08T11:01:02.863Z,101088.69
2022-10-08T11:03:39.715Z,101086.66
2022-10-08T11:06:23.471Z,101087.44
2022-10-08T11:08:59.047Z,101085.28
2022-10-08T11:11:35.493Z,101088.69
2022-10-08T11:14:20.003Z,101069.50
2022-10-08T11:16:58.915Z,101102.69
2022-10-08T11:19:39.872Z,101153.41
2022-10-08T11:22:15.249Z,101216.50
2022-10-08T11:24:55.409Z,101408.75
2022-10-08T11:27:35.333Z,101543.72
2022-10-08T11:30:11.670Z,101618.75
2022-10-08T11:32:41.769Z,101643.91
2022-10-08T11:35:23.697Z,101641.59
2022-10-08T11:37:59.078Z,101650.41
2022-10-08T11:40:32.663Z,101631.69
2022-10-08T11:43:08.850Z,101647.38
2022-10-08T11:45:40.038Z,101642.75
2022-10-08T11:48:34.632Z,101606.44
2022-10-08T11:51:37.701Z,101560.34
2022-10-08T11:54:16.271Z,101536.59
2022-10-08T11:56:47.702Z,101533.91
2022-10-08T11:59:35.362Z,101515.22
2022-10-08T12:02:06.741Z,101509.97
2022-10-08T12:04:37.914Z,101521.41
2022-10-08T12:07:22.146Z,101522.03
2022-10-08T12:10:21.226Z,101528.69
2022-10-08T12:13:26.394Z,101544.03
2022-10-08T12:16:05.107Z,101568.88
2022-10-08T12:18:45.126Z,101584.22
2022-10-08T12:21:56.488Z,101596.75
2022-10-08T12:25:01.430Z,101617.16
2022-10-08T12:27:37.868Z,101662.50
2022-10-08T12:30:10.088Z,101696.25
2022-10-08T12:32:59.459Z,101725.34
2022-10-08T12:35:31.575Z,101737.25
2022-10-08T12:38:14.300Z,101739.88
2022-10-08T12:40:45.468Z,101696.66
2022-10-08T12:43:23.051Z,101616.06
2022-10-08T12:45:59.882Z,101578.03
2022-10-08T12:48:40.121Z,101517.84
2022-10-08T12:51:19.830Z,101478.28
2022-10-08T12:53:49.798Z,101458.22
2022-10-08T12:56:21.990Z,101436.66
2022-10-08T12:58:51.825Z,101421.91
2022-10-08T13:01:23.237Z,101287.81
2022-10-08T13:04:16.637Z,101259.53
2022-10-08T13:06:46.077Z,101195.69
2022-10-08T13:09:18.452Z,101144.06
2022-10-08T13:11:52.126Z,101104.00
2022-10-08T13:14:28.258Z,101102.25
2022-10-08T13:16:58.519Z,101125.03
2022-10-08T13:19:36.859Z,101112.75
2022-10-08T13:22:08.956Z,101121.47
2022-10-08T13:24:42.699Z,101141.59
2022-10-08T13:27:25.213Z,101155.44
2022-10-08T13:29:54.699Z,101161.06
2022-10-08T13:32:25.805Z,101177.50
2022-10-08T13:34:58.870Z,101221.78
2022-10-08T13:37:34.829Z,101249.88
2022-10-08T13:40:06.753Z,101292.72
2022-10-08T13:42:37.641Z,101324.25
2022-10-08T13:45:14.801Z,101296.94
2022-10-08T13:47:44.260Z,101239.31
2022-10-08T13:50:16.567Z,101242.47
2022-10-08T13:52:48.233Z,101262.69
2022-10-08T13:55:26.721Z,101287.88
2022-10-08T13:57:56.471Z,101306.28
2022-10-08T14:00:26.418Z,101285.81
2022-10-08T14:02:55.822Z,101264.50
2022-10-08T14:05:29.785Z,101255.09
2022-10-08T14:08:01.605Z,101242.84
2022-10-08T14:10:31.154Z,101233.97
2022-10-08T14:13:00.618Z,101235.38
2022-10-08T14:15:32.875Z,101226.84
2022-10-08T14:18:02.290Z,101245.47
2022-10-08T14:20:34.353Z,101265.75
2022-10-08T14:23:03.809Z,101296.78
2022-10-08T14:25:33.298Z,101286.06
2022-10-08T14:28:03.230Z,101280.50
2022-10-08T14:30:32.723Z,101286.75
2022-10-08T14:33:02.602Z,101282.25
2022-10-08T14:35:35.333Z,101277.28
2022-10-08T14:38:04.718Z,101276.94
2022-10-08T14:40:34.127Z,101282.84
2022-10-08T14:43:03.521Z,101297.50
2022-10-08T14:45:32.939Z,101272.47
2022-10-08T14:48:02.342Z,101284.25
2022-10-08T14:50:31.714Z,101296.50
2022-10-08T14:53:04.147Z,101351.47
2022-10-08T14:55:41.027Z,101318.91
2022-10-08T14:58:22.906Z,101286.19
2022-10-08T15:00:55.887Z,101268.00
2022-10-08T15:03:25.723Z,101258.16
2022-10-08T15:05:56.361Z,101264.41
2022-10-08T15:08:28.395Z,101265.63
2022-10-08T15:10:57.887Z,101273.31
2022-10-08T15:13:27.349Z,101275.31
2022-10-08T15:15:56.738Z,101282.25
2022-10-08T15:18:26.113Z,101311.50
2022-10-08T15:20:59.117Z,101318.72
2022-10-08T15:23:31.337Z,101321.69
2022-10-08T15:26:01.726Z,101340.19
2022-10-08T15:28:31.413Z,101346.72
2022-10-08T15:31:05.357Z,101368.81
2022-10-08T15:33:37.826Z,101393.63
2022-10-08T15:36:07.771Z,101409.03
2022-10-08T15:38:39.758Z,101418.00
2022-10-08T15:41:09.420Z,101444.38
2022-10-08T15:43:38.806Z,101474.91
2022-10-08T15:46:13.498Z,101496.09
2022-10-08T15:48:43.193Z,101514.00
2022-10-08T15:51:12.877Z,101561.16
2022-10-08T15:53:44.845Z,101644.97
2022-10-08T15:56:14.518Z,101693.16
2022-10-08T15:58:51.887Z,101717.13
2022-10-08T16:01:23.482Z,101751.53
2022-10-08T16:03:54.437Z,101784.56
2022-10-08T16:06:26.962Z,101811.47
2022-10-08T16:08:59.865Z,101838.31
2022-10-08T16:11:31.441Z,101869.91
2022-10-08T16:14:03.829Z,101884.06
2022-10-08T16:16:33.467Z,101896.19
2022-10-08T16:19:04.230Z,101907.63
2022-10-08T16:21:35.022Z,101919.63
2022-10-08T16:24:07.577Z,101924.38
2022-10-08T16:26:37.694Z,101934.41
2022-10-08T16:29:09.194Z,101945.53
2022-10-08T16:31:40.090Z,101948.31
2022-10-08T16:34:11.438Z,101951.19
2022-10-08T16:36:40.872Z,101964.56
2022-10-08T16:39:14.199Z,101973.69
2022-10-08T16:41:43.816Z,101975.56
2022-10-08T16:44:15.638Z,101980.50
2022-10-08T16:46:48.415Z,101985.09
2022-10-08T16:49:24.100Z,101991.03
2022-10-08T16:51:54.242Z,101996.19
2022-10-08T16:54:26.491Z,101997.97
2022-10-08T16:56:55.913Z,101998.94
2022-10-08T16:59:26.959Z,102002.53
2022-10-08T17:01:58.330Z,102012.84
2022-10-08T17:04:29.625Z,102006.88
2022-10-08T17:06:59.201Z,102015.50
2022-10-08T17:09:31.216Z,102011.13
2022-10-08T17:12:00.682Z,102012.16
2022-10-08T17:14:31.053Z,102016.19
2022-10-08T17:17:00.553Z,102016.00
2022-10-08T17:19:30.072Z,102020.75
2022-10-08T17:21:59.612Z,102028.84
2022-10-08T17:24:31.671Z,102032.00
2022-10-08T17:27:01.062Z,102039.63
2022-10-08T17:29:30.573Z,102043.69
2022-10-08T17:32:02.881Z,102047.16
2022-10-08T17:34:32.574Z,102048.81
2022-10-08T17:37:02.602Z,102052.19
2022-10-08T17:39:34.574Z,102054.88
2022-10-08T17:42:07.120Z,102060.03
2022-10-08T17:44:37.230Z,102070.44
2022-10-08T17:47:07.818Z,102071.44
2022-10-08T17:49:37.206Z,102075.00
2022-10-08T17:52:06.615Z,102078.25
2022-10-08T17:54:38.597Z,102078.19
2022-10-08T17:57:07.986Z,102081.13
2022-10-08T17:59:37.382Z,102080.00
2022-10-08T18:02:06.849Z,102090.59
2022-10-08T18:04:36.315Z,102090.34
2022-10-08T18:07:05.954Z,102091.59
2022-10-08T18:09:38.088Z,102088.81
2022-10-08T18:12:07.685Z,102082.34
2022-10-08T18:14:37.127Z,102074.97
2022-10-08T18:17:06.723Z,102061.50
2022-10-08T18:19:36.118Z,102047.03
2022-10-08T18:22:05.478Z,102023.44
2022-10-08T18:24:34.869Z,102009.47
2022-10-08T18:27:07.034Z,101988.91
2022-10-08T18:29:36.455Z,101982.44
2022-10-08T18:32:06.469Z,101961.63
2022-10-08T18:34:35.826Z,101954.59
2022-10-08T18:37:05.231Z,101954.94
2022-10-08T18:39:34.596Z,101938.59
2022-10-08T18:42:06.849Z,101934.03
2022-10-08T18:44:36.228Z,101926.31
2022-10-08T18:47:05.784Z,101917.81
2022-10-08T18:49:36.047Z,101912.69
2022-10-08T18:52:05.457Z,101915.81
2022-10-08T18:54:34.841Z,101905.75
2022-10-08T18:57:06.832Z,101903.50
2022-10-08T18:59:36.605Z,101898.53
2022-10-08T19:02:06.138Z,101907.84
2022-10-08T19:04:36.226Z,101905.72
2022-10-08T19:07:05.652Z,101917.13
2022-10-08T19:09:35.017Z,101912.19
2022-10-08T19:12:08.135Z,101905.72
2022-10-08T19:14:37.510Z,101901.81
2022-10-08T19:17:06.879Z,101896.75
2022-10-08T19:19:36.269Z,101892.53
2022-10-08T19:22:06.363Z,101888.06
2022-10-08T19:24:40.686Z,101887.63
2022-10-08T19:27:13.065Z,101881.50
2022-10-08T19:29:42.581Z,101877.72
2022-10-08T19:32:11.955Z,101862.41
2022-10-08T19:34:41.366Z,101869.09
2022-10-08T19:37:11.119Z,101877.28
2022-10-08T19:39:44.077Z,101860.75
2022-10-08T19:42:16.354Z,101863.34
2022-10-08T19:44:45.762Z,101867.69
2022-10-08T19:47:15.143Z,101864.44
2022-10-08T19:49:44.534Z,101865.13
2022-10-08T19:52:13.918Z,101873.19
2022-10-08T19:54:43.350Z,101870.81
2022-10-08T19:57:12.717Z,101866.91
2022-10-08T19:59:44.681Z,101866.28
2022-10-08T20:02:14.158Z,101878.09
2022-10-08T20:04:44.883Z,101883.06
2022-10-08T20:07:14.316Z,101875.22
2022-10-08T20:09:43.735Z,101873.00
2022-10-08T20:12:13.121Z,101878.16
2022-10-08T20:14:45.075Z,101881.97
2022-10-08T20:17:14.459Z,101885.56
2022-10-08T20:19:43.862Z,101885.31
2022-10-08T20:22:13.249Z,101887.78
2022-10-08T20:24:42.610Z,101886.47
2022-10-08T20:27:12.029Z,101887.03
2022-10-08T20:29:41.389Z,101878.63
2022-10-08T20:32:13.365Z,101882.66
2022-10-08T20:34:42.750Z,101881.75
2022-10-08T20:37:12.178Z,101888.16
2022-10-08T20:39:41.620Z,101885.72
2022-10-08T20:42:10.989Z,101880.44
2022-10-08T20:44:40.409Z,101882.25
2022-10-08T20:47:09.778Z,101878.56
2022-10-08T20:49:41.861Z,101879.22
2022-10-08T20:52:11.242Z,101877.34
2022-10-08T20:54:40.611Z,101885.72
2022-10-08T20:57:10.161Z,101883.25
2022-10-08T20:59:39.621Z,101880.38
2022-10-08T21:02:09.214Z,101881.16
2022-10-08T21:04:41.310Z,101881.16
2022-10-08T21:07:11.281Z,101879.13
2022-10-08T21:09:40.701Z,101876.56
2022-10-08T21:12:10.095Z,101874.00
2022-10-08T21:14:39.517Z,101866.19
2022-10-08T21:17:08.906Z,101864.28
2022-10-08T21:19:40.914Z,101859.94
2022-10-08T21:22:10.297Z,101853.91
2022-10-08T21:24:39.723Z,101852.03
2022-10-08T21:27:09.162Z,101858.81
2022-10-08T21:29:38.822Z,101853.78
2022-10-08T21:32:08.305Z,101851.22
2022-10-08T21:34:37.723Z,101841.63
2022-10-08T21:37:13.698Z,101837.59
2022-10-08T21:39:43.421Z,101822.97
2022-10-08T21:42:12.801Z,101811.59
2022-10-08T21:44:42.362Z,101809.13
2022-10-08T21:47:11.846Z,101801.41
2022-10-08T21:49:41.389Z,101802.19
2022-10-08T21:52:13.346Z,101805.88
2022-10-08T21:54:42.780Z,101798.84
2022-10-08T21:57:16.092Z,101799.06
2022-10-08T21:59:45.821Z,101799.06
2022-10-08T22:02:15.361Z,101802.56
2022-10-08T22:04:44.970Z,101805.00
2022-10-08T22:07:16.955Z,101802.56
2022-10-08T22:09:46.335Z,101801.41
2022-10-08T22:12:15.721Z,101804.78
2022-10-08T22:14:45.112Z,101804.78
2022-10-08T22:17:14.509Z,101809.81
2022-10-08T22:19:43.972Z,101814.84
2022-10-08T22:22:13.354Z,101815.94
2022-10-08T22:24:45.323Z,101810.69
2022-10-08T22:27:14.707Z,101819.75
2022-10-08T22:29:44.116Z,101818.63
2022-10-08T22:32:13.505Z,101825.78
2022-10-08T22:34:42.969Z,101826.78
2022-10-08T22:37:12.351Z,101832.69
2022-10-08T22:39:41.734Z,101834.34
2022-10-08T22:42:13.683Z,101835.72
2022-10-08T22:44:43.084Z,101846.00
2022-10-08T22:47:12.441Z,101841.22
2022-10-08T22:49:41.893Z,101844.53
2022-10-08T22:52:11.274Z,101844.31
2022-10-08T22:54:40.652Z,101851.22
2022-10-08T22:57:10.029Z,101855.38
2022-10-08T22:59:41.974Z,101857.16
2022-10-08T23:02:11.428Z,101862.84
2022-10-08T23:04:40.977Z,101870.09
2022-10-08T23:07:10.348Z,101876.00
2022-10-08T23:09:39.754Z,101876.25
2022-10-08T23:12:09.182Z,101878.56
2022-10-08T23:14:38.556Z,101880.03
2022-10-08T23:17:10.542Z,101878.91
2022-10-08T23:19:39.963Z,101878.25
2022-10-08T23:22:09.341Z,101883.78
2022-10-08T23:24:38.732Z,101888.25
2022-10-08T23:27:09.763Z,101886.34
2022-10-08T23:29:39.326Z,101881.78
2022-10-08T23:32:11.348Z,101881.00
2022-10-08T23:34:40.845Z,101882.59
2022-10-08T23:37:10.226Z,101888.72
2022-10-08T23:39:39.602Z,101886.94
2022-10-08T23:42:08.981Z,101885.69
2022-10-08T23:44:38.366Z,101880.56
2022-10-08T23:47:07.818Z,101879.09
2022-10-08T23:49:39.776Z,101878.84
2022-10-08T23:52:09.130Z,101876.16
2022-10-08T23:54:38.551Z,101876.41
2022-10-08T23:57:07.942Z,101879.63
2022-10-08T23:59:37.317Z,101889.91
